Terminal Aerodrome Forecast
Issued by NWS

Home | Current Version | Previous Version | Graphics & Text | Print | Product List | Glossary On
Versions: 1 2 3 4 5 6 7 8 9 10 11 12 13 14 15 16
000
FTUS43 KMPX 271120
TAFRWF
TAF
KRWF 271120Z 2712/2812 13006KT P6SM BKN050 OVC120
     FM271500 15011KT P6SM VCSH SCT040 BKN090
     FM272300 15010KT P6SM VCSH BKN050 OVC090 PROB30 2800/2805 3SM
      -TSRA BKN040CB
     FM280500 14010KT 6SM -SHRA SCT012 OVC020
     FM280800 13009KT 3SM -RA BR BKN007 OVC012=

USA.gov is the U.S. government's official web portal to all federal, state and local government web resources and services.